Time;durP1;ratioP1;P1;durP2;ratioP2;P2;SDS_P1;SDS_P2;PMS_P1;PMS_P2;Temp;Humidity;BMP_temperature;BMP_pressure;BME280_temperature;BME280_humidity;BME280_pressure;Samples;Min_cycle;Max_cycle;Signal;HPM_P1;HPM_P2
2022/04/20 00:01:15;;;;;;;8.90;7.90;;;;;;;;;;5074474;28;20250;-83
2022/04/20 00:03:44;;;;;;;8.77;7.50;;;;;;;;;;5074621;28;20247;-83
2022/04/20 00:06:11;;;;;;;8.53;7.83;;;;;;;;;;5074513;28;20311;-83
2022/04/20 00:08:38;;;;;;;9.00;7.27;;;;;;;;;;5074453;28;20193;-83
2022/04/20 00:11:06;;;;;;;7.50;6.80;;;;;;;;;;5074256;28;20189;-83
2022/04/20 00:13:39;;;;;;;8.27;7.47;;;;;;;;;;5074544;28;20197;-83
2022/04/20 00:16:07;;;;;;;7.60;6.43;;;;;;;;;;5074274;28;20306;-83
2022/04/20 00:18:34;;;;;;;7.60;6.90;;;;;;;;;;5074404;28;20197;-83
2022/04/20 00:21:03;;;;;;;7.53;6.83;;;;;;;;;;5073928;28;20243;-82
2022/04/20 00:23:30;;;;;;;7.67;7.00;;;;;;;;;;5074284;28;20291;-83
2022/04/20 00:25:57;;;;;;;8.73;7.77;;;;;;;;;;5074059;28;20274;-83
2022/04/20 00:28:25;;;;;;;7.83;7.13;;;;;;;;;;5074189;28;20228;-83
2022/04/20 00:30:52;;;;;;;7.67;6.97;;;;;;;;;;5073782;28;20236;-82
2022/04/20 00:33:19;;;;;;;9.47;8.57;;;;;;;;;;5074222;28;20205;-82
2022/04/20 00:35:50;;;;;;;10.33;8.33;;;;;;;;;;5073872;28;20255;-83
2022/04/20 00:38:19;;;;;;;7.30;6.60;;;;;;;;;;5074101;28;20700;-82
2022/04/20 00:40:47;;;;;;;7.23;6.53;;;;;;;;;;5073646;28;20228;-82
2022/04/20 00:43:14;;;;;;;6.40;5.90;;;;;;;;;;5073996;28;20197;-82
2022/04/20 00:45:42;;;;;;;8.73;6.83;;;;;;;;;;5073622;28;20237;-82
2022/04/20 00:48:11;;;;;;;7.47;6.67;;;;;;;;;;5073936;28;20216;-82
2022/04/20 00:50:39;;;;;;;7.60;6.90;;;;;;;;;;5072671;28;20194;-82
2022/04/20 00:53:07;;;;;;;7.17;6.50;;;;;;;;;;5074116;28;20225;-82
2022/04/20 00:55:50;;;;;;;8.37;7.17;;;;;;;;;;5073552;28;20232;-82
2022/04/20 00:58:20;;;;;;;8.53;7.73;;;;;;;;;;5073728;28;20204;-81
2022/04/20 01:00:48;;;;;;;10.77;8.93;;;;;;;;;;5073462;28;20204;-82
2022/04/20 01:03:15;;;;;;;9.93;8.93;;;;;;;;;;5073451;28;20201;-82
2022/04/20 01:05:42;;;;;;;7.40;6.70;;;;;;;;;;5073678;28;20267;-82
2022/04/20 01:08:10;;;;;;;9.60;7.63;;;;;;;;;;5073461;28;20231;-82
2022/04/20 01:10:37;;;;;;;8.73;7.93;;;;;;;;;;5073024;28;20231;-82
2022/04/20 01:13:06;;;;;;;11.67;9.83;;;;;;;;;;5073427;28;20665;-82
2022/04/20 01:15:34;;;;;;;14.13;11.27;;;;;;;;;;5072812;28;20693;-82
2022/04/20 01:18:01;;;;;;;24.97;15.93;;;;;;;;;;5072865;28;20195;-81
2022/04/20 01:20:32;;;;;;;11.10;9.83;;;;;;;;;;5072866;28;20236;-82
2022/04/20 01:22:59;;;;;;;10.53;8.27;;;;;;;;;;5073242;28;20642;-82
2022/04/20 01:25:26;;;;;;;12.20;9.40;;;;;;;;;;5073025;28;20661;-82
2022/04/20 01:27:56;;;;;;;11.63;9.57;;;;;;;;;;5072923;28;20225;-82
2022/04/20 01:30:27;;;;;;;11.63;10.30;;;;;;;;;;5072669;28;20288;-82
2022/04/20 01:32:56;;;;;;;9.40;8.43;;;;;;;;;;5073229;28;20280;-82
2022/04/20 01:35:23;;;;;;;7.90;7.10;;;;;;;;;;5072782;28;20204;-82
2022/04/20 01:37:52;;;;;;;9.53;8.20;;;;;;;;;;5072745;28;20288;-81
2022/04/20 01:40:20;;;;;;;9.63;8.63;;;;;;;;;;5072433;28;20237;-82
2022/04/20 01:42:47;;;;;;;9.63;8.73;;;;;;;;;;5072758;28;20280;-82
2022/04/20 01:45:14;;;;;;;9.07;7.93;;;;;;;;;;5072619;28;20236;-82
2022/04/20 01:47:44;;;;;;;9.70;7.87;;;;;;;;;;5072946;28;20340;-81
2022/04/20 01:50:11;;;;;;;8.70;7.80;;;;;;;;;;5072234;28;20288;-82
2022/04/20 01:52:49;;;;;;;8.73;7.93;;;;;;;;;;5072697;28;20287;-81
2022/04/20 01:55:19;;;;;;;9.60;8.60;;;;;;;;;;5072769;28;20247;-82
2022/04/20 01:57:46;;;;;;;8.57;7.67;;;;;;;;;;5072563;28;20228;-82
2022/04/20 02:00:16;;;;;;;9.13;8.23;;;;;;;;;;5072673;28;20201;-82
2022/04/20 02:03:00;;;;;;;10.60;9.00;;;;;;;;;;5072540;28;20259;-82
2022/04/20 02:05:30;;;;;;;11.23;8.90;;;;;;;;;;5072192;28;20203;-82
2022/04/20 02:07:58;;;;;;;11.50;9.40;;;;;;;;;;5072052;28;20264;-82
2022/04/20 02:10:27;;;;;;;10.43;8.93;;;;;;;;;;5072154;28;20200;-82
2022/04/20 02:12:54;;;;;;;10.33;8.73;;;;;;;;;;5072114;28;20291;-82
2022/04/20 02:15:27;;;;;;;9.27;8.17;;;;;;;;;;5071848;28;20303;-82
2022/04/20 02:17:55;;;;;;;8.97;7.83;;;;;;;;;;5072248;28;20185;-82
2022/04/20 02:20:22;;;;;;;12.00;7.93;;;;;;;;;;5071999;28;20193;-82
2022/04/20 02:22:49;;;;;;;8.73;7.90;;;;;;;;;;5072730;28;20302;-82
2022/04/20 02:25:17;;;;;;;10.20;8.40;;;;;;;;;;5071488;28;20244;-82
2022/04/20 02:27:45;;;;;;;8.97;8.10;;;;;;;;;;5071906;28;20316;-82
2022/04/20 02:30:13;;;;;;;9.03;8.00;;;;;;;;;;5071928;28;20189;-82
2022/04/20 02:32:40;;;;;;;8.67;7.90;;;;;;;;;;5071839;28;20204;-82
2022/04/20 02:35:08;;;;;;;8.73;7.70;;;;;;;;;;5071789;28;20201;-82
2022/04/20 02:37:45;;;;;;;10.03;9.07;;;;;;;;;;5071941;28;20208;-82
2022/04/20 02:40:13;;;;;;;10.20;8.83;;;;;;;;;;5071562;28;20292;-82
2022/04/20 02:42:40;;;;;;;8.03;7.33;;;;;;;;;;5071725;28;20293;-82
2022/04/20 02:45:09;;;;;;;10.13;7.87;;;;;;;;;;5071844;28;20580;-82
2022/04/20 02:47:37;;;;;;;10.93;9.17;;;;;;;;;;5071744;28;20221;-82
2022/04/20 02:50:04;;;;;;;11.77;9.70;;;;;;;;;;5071577;28;20288;-82
2022/04/20 02:52:32;;;;;;;13.03;10.07;;;;;;;;;;5071566;28;20288;-82
2022/04/20 02:54:59;;;;;;;15.27;12.17;;;;;;;;;;5071652;28;20287;-82
2022/04/20 02:57:26;;;;;;;14.33;12.80;;;;;;;;;;5071708;28;20622;-82
2022/04/20 02:59:53;;;;;;;16.30;13.53;;;;;;;;;;5071870;28;20225;-82
2022/04/20 03:02:22;;;;;;;20.57;15.80;;;;;;;;;;5071826;28;20201;-82
2022/04/20 03:04:49;;;;;;;16.37;14.60;;;;;;;;;;5071524;28;20291;-82
2022/04/20 03:07:16;;;;;;;16.00;14.07;;;;;;;;;;5071482;28;20315;-81
2022/04/20 03:09:44;;;;;;;14.40;12.97;;;;;;;;;;5071285;28;20228;-82
2022/04/20 03:12:11;;;;;;;20.97;16.30;;;;;;;;;;5072024;28;20235;-82
2022/04/20 03:14:38;;;;;;;31.67;24.60;;;;;;;;;;5074685;28;20204;-81
2022/04/20 03:17:06;;;;;;;21.97;19.50;;;;;;;;;;5075573;28;20281;-82
2022/04/20 03:19:34;;;;;;;14.00;12.43;;;;;;;;;;5075447;28;20193;-81
2022/04/20 03:22:02;;;;;;;14.87;11.57;;;;;;;;;;5075391;28;20296;-81
2022/04/20 03:24:29;;;;;;;16.03;12.47;;;;;;;;;;5075679;28;20573;-82
2022/04/20 03:26:56;;;;;;;25.33;18.13;;;;;;;;;;5075412;28;20224;-82
2022/04/20 03:29:23;;;;;;;13.60;10.43;;;;;;;;;;5075230;28;20208;-81
2022/04/20 03:31:59;;;;;;;11.03;9.93;;;;;;;;;;5074813;28;20666;-81
2022/04/20 03:34:27;;;;;;;25.23;18.97;;;;;;;;;;5075411;28;20626;-81
2022/04/20 03:36:55;;;;;;;20.93;17.00;;;;;;;;;;5075239;28;20276;-82
2022/04/20 03:39:23;;;;;;;13.07;11.30;;;;;;;;;;5074936;28;20292;-81
2022/04/20 03:41:50;;;;;;;12.33;10.70;;;;;;;;;;5075267;28;20280;-81
2022/04/20 03:44:17;;;;;;;9.70;8.73;;;;;;;;;;5074758;28;20207;-82
2022/04/20 03:46:44;;;;;;;11.13;10.03;;;;;;;;;;5074933;28;20627;-82
2022/04/20 03:49:11;;;;;;;10.67;9.60;;;;;;;;;;5074611;28;20245;-81
2022/04/20 03:51:41;;;;;;;10.33;8.77;;;;;;;;;;5075237;28;20251;-82
2022/04/20 03:54:10;;;;;;;10.83;9.63;;;;;;;;;;5074582;28;20756;-81
2022/04/20 03:59:18;;;;;;;11.60;9.83;;;;;;;;;;5074208;28;20228;-82
2022/04/20 04:01:46;;;;;;;10.20;8.67;;;;;;;;;;5074648;28;20204;-81
2022/04/20 04:04:13;;;;;;;10.23;9.30;;;;;;;;;;5074851;28;20619;-81
2022/04/20 04:06:40;;;;;;;10.33;9.07;;;;;;;;;;5074460;28;20288;-81
2022/04/20 04:09:07;;;;;;;11.30;8.90;;;;;;;;;;5074443;28;20250;-82
2022/04/20 04:11:36;;;;;;;10.10;8.87;;;;;;;;;;5074679;28;20215;-81
2022/04/20 04:14:03;;;;;;;11.97;8.77;;;;;;;;;;5074316;28;20229;-81
2022/04/20 04:16:36;;;;;;;9.67;8.67;;;;;;;;;;5074305;28;20674;-81
2022/04/20 04:19:03;;;;;;;10.70;9.60;;;;;;;;;;5074302;28;20193;-81
2022/04/20 04:21:31;;;;;;;13.67;8.77;;;;;;;;;;5074172;28;20284;-81
2022/04/20 04:23:58;;;;;;;11.13;9.47;;;;;;;;;;5074138;28;20236;-81
2022/04/20 04:26:27;;;;;;;11.33;9.83;;;;;;;;;;5074509;28;20284;-82
2022/04/20 04:28:57;;;;;;;12.57;8.87;;;;;;;;;;5074189;28;20710;-82
2022/04/20 04:31:25;;;;;;;9.70;8.70;;;;;;;;;;5073955;28;20748;-81
2022/04/20 04:33:55;;;;;;;11.30;10.10;;;;;;;;;;5074149;28;20735;-81
2022/04/20 04:36:22;;;;;;;13.30;10.23;;;;;;;;;;5074177;28;20380;-82
2022/04/20 04:38:49;;;;;;;11.87;8.80;;;;;;;;;;5074318;28;20231;-82
2022/04/20 04:41:17;;;;;;;11.13;9.60;;;;;;;;;;5073729;28;20205;-81
2022/04/20 04:43:44;;;;;;;45.67;32.73;;;;;;;;;;5074206;28;20229;-81
2022/04/20 04:48:57;;;;;;;54.37;40.97;;;;;;;;;;5073589;28;20691;-81
2022/04/20 04:51:24;;;;;;;34.23;25.03;;;;;;;;;;5073882;28;20225;-81
2022/04/20 04:53:52;;;;;;;30.70;20.00;;;;;;;;;;5074093;28;20236;-81
2022/04/20 04:56:22;;;;;;;18.73;15.60;;;;;;;;;;5073429;28;20207;-81
2022/04/20 04:58:59;;;;;;;18.70;14.80;;;;;;;;;;5073728;28;20232;-81
2022/04/20 05:01:27;;;;;;;16.37;12.97;;;;;;;;;;5073662;28;20207;-82
2022/04/20 05:03:55;;;;;;;16.13;14.10;;;;;;;;;;5073512;28;20284;-82
2022/04/20 05:06:34;;;;;;;19.03;14.13;;;;;;;;;;5073658;28;20234;-82
2022/04/20 05:09:02;;;;;;;16.10;13.80;;;;;;;;;;5073322;28;20231;-83
2022/04/20 05:11:29;;;;;;;18.87;14.63;;;;;;;;;;5073391;28;20749;-83
2022/04/20 05:13:59;;;;;;;15.70;13.80;;;;;;;;;;5073229;28;20624;-84
2022/04/20 05:16:31;;;;;;;15.43;12.93;;;;;;;;;;5072994;28;20229;-84
2022/04/20 05:18:58;;;;;;;13.73;10.77;;;;;;;;;;5073229;28;20205;-84
2022/04/20 05:21:32;;;;;;;12.33;10.53;;;;;;;;;;5073326;28;20240;-84
2022/04/20 05:23:59;;;;;;;14.00;10.43;;;;;;;;;;5072898;28;20235;-84
2022/04/20 05:26:32;;;;;;;12.03;10.20;;;;;;;;;;5072833;28;20197;-84
2022/04/20 05:29:03;;;;;;;12.07;10.77;;;;;;;;;;5077110;22;22864;-84
2022/04/20 05:31:31;;;;;;;15.47;9.83;;;;;;;;;;5053118;28;20194;-84
2022/04/20 05:33:59;;;;;;;11.33;8.93;;;;;;;;;;5052497;28;20210;-83
2022/04/20 05:41:39;;;;;;;12.87;10.20;;;;;;;;;;5052549;28;20686;-84
2022/04/20 05:42:06;;;;;;;15.97;11.83;;;;;;;;;;5053225;28;20190;-84
2022/04/20 05:44:34;;;;;;;25.07;18.20;;;;;;;;;;5052567;28;20206;-84
2022/04/20 05:47:04;;;;;;;28.40;20.70;;;;;;;;;;5052951;28;20304;-84
2022/04/20 05:49:31;;;;;;;26.07;20.03;;;;;;;;;;5052792;28;20210;-84
2022/04/20 05:51:59;;;;;;;14.20;11.30;;;;;;;;;;5053051;28;20665;-83
2022/04/20 05:54:26;;;;;;;16.30;13.37;;;;;;;;;;5052620;28;20579;-83
2022/04/20 05:56:53;;;;;;;14.97;10.90;;;;;;;;;;5052652;28;20197;-83
2022/04/20 05:59:20;;;;;;;13.50;10.07;;;;;;;;;;5052368;28;20634;-83
2022/04/20 06:02:00;;;;;;;10.77;8.23;;;;;;;;;;5052490;28;20200;-83
2022/04/20 06:04:30;;;;;;;11.47;10.23;;;;;;;;;;5052084;28;20197;-82
2022/04/20 06:07:00;;;;;;;9.60;8.70;;;;;;;;;;5052396;28;20197;-83
2022/04/20 06:09:27;;;;;;;10.30;8.67;;;;;;;;;;5052424;28;20257;-82
2022/04/20 06:11:54;;;;;;;13.30;10.27;;;;;;;;;;5052360;28;20202;-82
2022/04/20 06:14:22;;;;;;;12.87;10.80;;;;;;;;;;5052380;28;20244;-82
2022/04/20 06:16:49;;;;;;;16.37;11.60;;;;;;;;;;5052038;28;20252;-82
2022/04/20 06:19:17;;;;;;;12.23;10.93;;;;;;;;;;5052263;28;20636;-82
2022/04/20 06:21:45;;;;;;;13.47;8.97;;;;;;;;;;5052459;28;20604;-82
2022/04/20 06:24:13;;;;;;;10.43;8.10;;;;;;;;;;5051991;28;20301;-82
2022/04/20 06:26:41;;;;;;;10.03;7.57;;;;;;;;;;5052377;28;20281;-82
2022/04/20 06:29:08;;;;;;;10.47;7.73;;;;;;;;;;5051613;28;20821;-82
2022/04/20 06:31:39;;;;;;;9.93;7.30;;;;;;;;;;5052238;28;20280;-82
2022/04/20 06:34:07;;;;;;;6.80;6.10;;;;;;;;;;5051580;28;20692;-82
2022/04/20 06:36:34;;;;;;;8.83;7.33;;;;;;;;;;5052000;28;20277;-81
2022/04/20 06:39:06;;;;;;;8.57;7.70;;;;;;;;;;5052051;28;20566;-82
2022/04/20 06:41:33;;;;;;;9.17;8.27;;;;;;;;;;5051879;28;20233;-82
2022/04/20 06:44:00;;;;;;;9.87;7.57;;;;;;;;;;5051432;28;20202;-82
2022/04/20 06:46:28;;;;;;;9.47;7.87;;;;;;;;;;5052106;28;20281;-81
2022/04/20 06:48:55;;;;;;;9.83;7.53;;;;;;;;;;5050763;28;20744;-81
2022/04/20 06:51:23;;;;;;;8.70;7.47;;;;;;;;;;5051988;28;20202;-82
2022/04/20 06:59:24;;;;;;;8.37;7.57;;;;;;;;;;5051707;28;20242;-82
2022/04/20 07:01:52;;;;;;;12.73;8.87;;;;;;;;;;5051739;28;20611;-82
2022/04/20 07:04:19;;;;;;;11.10;9.80;;;;;;;;;;5051421;28;20709;-82
2022/04/20 07:06:55;;;;;;;9.87;8.90;;;;;;;;;;5051497;28;20288;-82
2022/04/20 07:09:31;;;;;;;11.17;10.00;;;;;;;;;;5051574;28;20308;-81
2022/04/20 07:12:00;;;;;;;11.40;10.30;;;;;;;;;;5051294;28;20202;-82
2022/04/20 07:14:27;;;;;;;12.50;10.73;;;;;;;;;;5051332;28;20686;-82
2022/04/20 07:16:54;;;;;;;12.83;9.87;;;;;;;;;;5051470;28;20293;-82
2022/04/20 07:19:21;;;;;;;11.83;10.63;;;;;;;;;;5051339;28;20312;-81
2022/04/20 07:21:49;;;;;;;16.80;13.90;;;;;;;;;;5051527;28;20204;-81
2022/04/20 07:24:16;;;;;;;15.13;13.63;;;;;;;;;;5051112;28;20288;-82
2022/04/20 07:26:43;;;;;;;17.37;15.57;;;;;;;;;;5051757;28;20256;-82
2022/04/20 07:29:12;;;;;;;74.83;43.23;;;;;;;;;;5050703;28;20255;-82
2022/04/20 07:31:42;;;;;;;24.67;17.17;;;;;;;;;;5051530;28;20718;-82
2022/04/20 07:34:09;;;;;;;19.80;15.17;;;;;;;;;;5051150;28;20292;-81
2022/04/20 07:36:36;;;;;;;16.53;14.10;;;;;;;;;;5051371;28;20229;-82
2022/04/20 07:39:04;;;;;;;21.63;18.07;;;;;;;;;;5051092;28;20289;-82
2022/04/20 07:41:34;;;;;;;21.77;18.47;;;;;;;;;;5051365;28;20300;-82
2022/04/20 07:44:07;;;;;;;13.17;11.97;;;;;;;;;;5051160;28;20660;-82
2022/04/20 07:46:36;;;;;;;13.73;12.30;;;;;;;;;;5051251;28;20293;-82
2022/04/20 07:50:18;;;;;;;15.83;11.70;;;;;;;;;;5050895;28;20728;-82
2022/04/20 07:51:50;;;;;;;15.23;13.63;;;;;;;;;;5051124;28;20198;-82
2022/04/20 07:54:17;;;;;;;15.83;14.23;;;;;;;;;;5050773;28;20276;-82
2022/04/20 07:56:45;;;;;;;20.87;18.77;;;;;;;;;;5051174;28;20293;-82
2022/04/20 07:59:12;;;;;;;26.33;22.63;;;;;;;;;;5051765;28;20237;-82
2022/04/20 08:01:41;;;;;;;18.30;16.37;;;;;;;;;;5055044;28;20198;-82
2022/04/20 08:04:08;;;;;;;28.67;22.90;;;;;;;;;;5054636;28;20205;-82
2022/04/20 08:06:41;;;;;;;19.30;17.10;;;;;;;;;;5054740;28;20226;-82
2022/04/20 08:09:09;;;;;;;20.63;18.53;;;;;;;;;;5054419;28;20225;-82
2022/04/20 08:11:36;;;;;;;27.87;22.87;;;;;;;;;;5054965;28;20304;-82
2022/04/20 08:14:13;;;;;;;23.33;19.93;;;;;;;;;;5054131;28;20198;-82
2022/04/20 08:16:48;;;;;;;14.43;12.53;;;;;;;;;;5054554;28;20228;-82
2022/04/20 08:19:15;;;;;;;12.00;10.80;;;;;;;;;;5054595;28;20193;-83
2022/04/20 08:21:55;;;;;;;12.60;11.40;;;;;;;;;;5054639;28;20277;-82
2022/04/20 08:24:22;;;;;;;14.17;12.67;;;;;;;;;;5053939;28;20209;-82
2022/04/20 08:26:49;;;;;;;19.57;17.53;;;;;;;;;;5054380;28;20240;-82
2022/04/20 08:29:17;;;;;;;15.20;12.87;;;;;;;;;;5053421;28;20316;-82
2022/04/20 08:31:49;;;;;;;13.73;12.23;;;;;;;;;;5054366;28;20273;-82
2022/04/20 08:34:16;;;;;;;12.80;11.50;;;;;;;;;;5054060;28;20301;-82
2022/04/20 08:36:43;;;;;;;13.40;12.07;;;;;;;;;;5053972;28;20255;-82
2022/04/20 08:39:10;;;;;;;14.17;12.77;;;;;;;;;;5053884;28;20746;-82
2022/04/20 08:41:38;;;;;;;14.60;13.20;;;;;;;;;;5054049;28;20284;-81
2022/04/20 08:44:11;;;;;;;15.27;13.67;;;;;;;;;;5053908;28;20225;-82
2022/04/20 08:46:40;;;;;;;16.23;13.80;;;;;;;;;;5054017;28;20582;-82
2022/04/20 08:49:09;;;;;;;14.77;12.33;;;;;;;;;;5053518;28;20268;-82
2022/04/20 08:54:19;;;;;;;13.23;11.83;;;;;;;;;;5052688;28;20600;-82
2022/04/20 08:59:31;;;;;;;15.57;13.97;;;;;;;;;;5054084;28;20228;-82
2022/04/20 09:01:59;;;;;;;100.13;61.73;;;;;;;;;;5053617;28;20202;-82
2022/04/20 09:04:28;;;;;;;34.90;29.63;;;;;;;;;;5053775;28;20295;-82
2022/04/20 09:06:56;;;;;;;19.43;17.37;;;;;;;;;;5053570;28;20206;-82
2022/04/20 09:09:28;;;;;;;16.37;14.33;;;;;;;;;;5053406;28;20252;-82
2022/04/20 09:12:15;;;;;;;15.00;13.53;;;;;;;;;;5052945;28;20193;-82
2022/04/20 09:14:45;;;;;;;16.30;14.57;;;;;;;;;;5053554;28;20186;-82
2022/04/20 09:17:12;;;;;;;16.90;15.20;;;;;;;;;;5053292;28;20206;-82
2022/04/20 09:19:41;;;;;;;23.03;20.20;;;;;;;;;;5052869;28;20582;-82
2022/04/20 09:22:29;;;;;;;41.83;37.43;;;;;;;;;;5053407;28;20197;-82
2022/04/20 09:25:06;;;;;;;14.40;13.00;;;;;;;;;;5053377;28;20281;-82
2022/04/20 09:27:34;;;;;;;13.47;12.07;;;;;;;;;;5053070;28;20220;-82
2022/04/20 09:30:02;;;;;;;14.07;12.67;;;;;;;;;;5052764;28;20240;-82
2022/04/20 09:32:38;;;;;;;14.07;12.70;;;;;;;;;;5053436;28;20297;-82
2022/04/20 09:35:09;;;;;;;18.10;14.60;;;;;;;;;;5052708;28;20272;-82
2022/04/20 09:37:43;;;;;;;11.87;10.37;;;;;;;;;;5052818;28;20717;-82
2022/04/20 09:40:12;;;;;;;12.20;10.90;;;;;;;;;;5052886;28;20280;-82
2022/04/20 09:42:40;;;;;;;9.97;8.93;;;;;;;;;;5052905;28;20197;-83
2022/04/20 09:45:08;;;;;;;10.03;9.03;;;;;;;;;;5052613;28;20198;-82
2022/04/20 09:50:27;;;;;;;12.10;10.90;;;;;;;;;;5052665;28;20213;-82
2022/04/20 09:52:58;;;;;;;14.37;13.00;;;;;;;;;;5053038;28;20285;-81
2022/04/20 09:55:29;;;;;;;11.77;10.43;;;;;;;;;;5052831;28;20217;-81
2022/04/20 09:58:13;;;;;;;14.53;12.10;;;;;;;;;;5052995;28;20202;-81
2022/04/20 10:00:41;;;;;;;14.87;13.37;;;;;;;;;;5052483;28;20228;-81
2022/04/20 10:03:08;;;;;;;11.17;10.07;;;;;;;;;;5052551;28;20194;-81
2022/04/20 10:05:47;;;;;;;10.40;9.33;;;;;;;;;;5052289;28;20243;-83
2022/04/20 10:08:14;;;;;;;7.03;6.33;;;;;;;;;;5052714;28;20194;-80
2022/04/20 10:10:41;;;;;;;8.13;7.43;;;;;;;;;;5052097;28;20257;-81
2022/04/20 10:13:09;;;;;;;6.33;5.67;;;;;;;;;;5052230;28;20204;-81
2022/04/20 10:18:29;;;;;;;7.67;6.97;;;;;;;;;;5052256;28;20185;-82
2022/04/20 10:21:00;;;;;;;7.50;6.80;;;;;;;;;;5052029;28;20190;-82
2022/04/20 10:23:29;;;;;;;6.37;5.77;;;;;;;;;;5052159;28;20205;-82
2022/04/20 10:25:58;;;;;;;5.80;5.30;;;;;;;;;;5052006;28;20260;-82
2022/04/20 10:28:31;;;;;;;9.33;8.43;;;;;;;;;;5051671;28;20563;-81
2022/04/20 10:31:20;;;;;;;5.73;5.30;;;;;;;;;;5051800;28;20627;-82
2022/04/20 10:33:47;;;;;;;7.07;6.43;;;;;;;;;;5049325;28;20260;-82
2022/04/20 10:36:18;;;;;;;6.23;5.73;;;;;;;;;;5051930;28;20236;-83
2022/04/20 10:38:47;;;;;;;5.30;4.90;;;;;;;;;;5051901;28;20240;-82
2022/04/20 10:41:17;;;;;;;6.60;5.83;;;;;;;;;;5051872;28;20194;-83
2022/04/20 10:43:45;;;;;;;5.47;5.07;;;;;;;;;;5051845;28;20186;-82
2022/04/20 10:46:16;;;;;;;6.07;5.47;;;;;;;;;;5051437;28;20198;-83
2022/04/20 10:48:51;;;;;;;6.23;5.57;;;;;;;;;;5051885;28;20670;-82
2022/04/20 10:51:22;;;;;;;6.37;5.87;;;;;;;;;;5052153;28;20185;-82
2022/04/20 10:53:52;;;;;;;10.33;8.07;;;;;;;;;;5051493;28;20655;-83
2022/04/20 10:56:20;;;;;;;9.20;7.40;;;;;;;;;;5052027;28;20625;-82
2022/04/20 10:59:08;;;;;;;7.00;6.37;;;;;;;;;;5051624;28;20284;-82
2022/04/20 11:02:09;;;;;;;5.57;5.07;;;;;;;;;;5051726;28;20193;-81
2022/04/20 11:04:39;;;;;;;7.00;6.20;;;;;;;;;;5048419;28;20197;-82
2022/04/20 11:07:23;;;;;;;7.30;6.70;;;;;;;;;;5051917;28;20194;-82
2022/04/20 11:10:06;;;;;;;6.13;5.53;;;;;;;;;;5051444;28;20206;-82
2022/04/20 11:19:02;;;;;;;6.97;6.33;;;;;;;;;;5051668;28;20177;-82
2022/04/20 11:21:33;;;;;;;6.13;5.33;;;;;;;;;;5051461;28;20198;-82
2022/04/20 11:24:03;;;;;;;5.47;5.07;;;;;;;;;;5051344;28;20225;-81
2022/04/20 11:26:34;;;;;;;11.13;9.37;;;;;;;;;;5051227;28;20567;-81
2022/04/20 11:29:14;;;;;;;8.53;7.73;;;;;;;;;;5050925;28;20217;-81
2022/04/20 11:31:45;;;;;;;6.90;6.40;;;;;;;;;;5051749;28;20255;-81
2022/04/20 11:34:14;;;;;;;6.90;6.30;;;;;;;;;;5052370;28;20634;-81
2022/04/20 11:36:46;;;;;;;10.73;9.63;;;;;;;;;;5055024;28;20196;-82
2022/04/20 11:39:15;;;;;;;6.23;5.63;;;;;;;;;;5055030;28;20201;-81
2022/04/20 11:41:45;;;;;;;6.73;5.57;;;;;;;;;;5055430;28;20220;-82
2022/04/20 11:44:22;;;;;;;7.73;7.13;;;;;;;;;;5054700;28;20237;-81
2022/04/20 11:46:50;;;;;;;6.87;6.33;;;;;;;;;;5055125;28;20228;-82
2022/04/20 11:49:17;;;;;;;6.80;6.30;;;;;;;;;;5054736;28;20204;-82
2022/04/20 11:51:46;;;;;;;8.90;8.10;;;;;;;;;;5055010;28;20288;-82
2022/04/20 11:54:21;;;;;;;9.40;8.60;;;;;;;;;;5054891;28;20194;-82
2022/04/20 11:56:48;;;;;;;9.13;8.33;;;;;;;;;;5055297;28;20304;-82
2022/04/20 11:59:18;;;;;;;50.10;42.03;;;;;;;;;;5054655;28;20735;-82
2022/04/20 12:01:45;;;;;;;37.03;28.17;;;;;;;;;;5054886;28;20205;-82
2022/04/20 12:04:13;;;;;;;13.53;12.13;;;;;;;;;;5054635;28;20292;-83
2022/04/20 12:06:49;;;;;;;8.30;7.50;;;;;;;;;;5054550;28;20670;-82
2022/04/20 12:09:16;;;;;;;8.20;7.43;;;;;;;;;;5054169;28;20197;-83
2022/04/20 12:11:54;;;;;;;9.53;8.70;;;;;;;;;;5054601;28;20202;-83
2022/04/20 12:14:22;;;;;;;9.27;8.37;;;;;;;;;;5054506;28;20725;-82
2022/04/20 12:17:00;;;;;;;7.93;7.23;;;;;;;;;;5054249;28;20200;-83
2022/04/20 12:19:27;;;;;;;34.27;22.80;;;;;;;;;;5054119;28;20190;-83
2022/04/20 12:22:05;;;;;;;26.97;21.03;;;;;;;;;;5054432;28;20229;-83
2022/04/20 12:24:42;;;;;;;16.93;15.17;;;;;;;;;;5054466;28;20236;-83
2022/04/20 12:27:20;;;;;;;33.67;25.87;;;;;;;;;;5054493;28;20205;-83
2022/04/20 12:30:03;;;;;;;12.90;11.53;;;;;;;;;;5053629;28;20233;-84
2022/04/20 12:32:50;;;;;;;10.90;9.80;;;;;;;;;;5054035;28;20229;-84
2022/04/20 12:35:21;;;;;;;12.77;11.47;;;;;;;;;;5053753;28;20198;-84
2022/04/20 12:37:54;;;;;;;9.70;8.70;;;;;;;;;;5053887;28;20281;-83
2022/04/20 12:40:24;;;;;;;11.17;10.07;;;;;;;;;;5053773;28;20216;-83
2022/04/20 12:43:09;;;;;;;8.03;7.33;;;;;;;;;;5053940;28;20201;-83
2022/04/20 12:45:40;;;;;;;11.17;10.17;;;;;;;;;;5062857;22;20225;-84
2022/04/20 12:48:16;;;;;;;13.47;12.33;;;;;;;;;;5074037;28;20268;-84
2022/04/20 12:50:46;;;;;;;13.13;11.80;;;;;;;;;;5073458;28;20217;-84
2022/04/20 12:53:18;;;;;;;10.50;9.40;;;;;;;;;;5073982;28;20189;-84
2022/04/20 13:04:28;;;;;;;8.27;7.57;;;;;;;;;;5053583;28;20177;-84
2022/04/20 13:06:56;;;;;;;8.53;7.83;;;;;;;;;;5053246;28;20229;-84
2022/04/20 13:09:38;;;;;;;10.83;9.80;;;;;;;;;;5053370;28;20252;-84
2022/04/20 13:12:06;;;;;;;8.90;7.97;;;;;;;;;;5053783;28;20229;-84
2022/04/20 13:14:36;;;;;;;11.10;9.97;;;;;;;;;;5053418;28;20255;-83
2022/04/20 13:17:09;;;;;;;11.37;10.10;;;;;;;;;;5053251;28;20649;-83
2022/04/20 13:19:42;;;;;;;20.07;17.97;;;;;;;;;;5053161;28;20706;-83
2022/04/20 13:22:10;;;;;;;15.70;12.57;;;;;;;;;;5053125;28;20201;-84
2022/04/20 13:30:09;;;;;;;28.33;25.23;;;;;;;;;;5053284;28;20693;-84
2022/04/20 13:32:36;;;;;;;18.40;16.47;;;;;;;;;;5053029;28;20194;-84
2022/04/20 13:35:10;;;;;;;27.17;18.63;;;;;;;;;;5052911;28;20197;-84
2022/04/20 13:37:37;;;;;;;25.83;21.23;;;;;;;;;;5053050;28;20730;-84
2022/04/20 13:40:05;;;;;;;12.47;11.30;;;;;;;;;;5052806;28;20252;-83
2022/04/20 13:42:42;;;;;;;11.47;10.40;;;;;;;;;;5052778;28;20285;-83
2022/04/20 13:45:11;;;;;;;18.57;16.67;;;;;;;;;;5052348;28;20280;-83
2022/04/20 13:47:38;;;;;;;26.57;22.20;;;;;;;;;;5052710;28;20202;-84
2022/04/20 13:50:09;;;;;;;25.20;21.50;;;;;;;;;;5052501;28;20265;-83
2022/04/20 13:52:37;;;;;;;33.17;26.07;;;;;;;;;;5052430;28;20198;-83
2022/04/20 13:55:05;;;;;;;49.17;36.07;;;;;;;;;;5052302;28;20201;-83
2022/04/20 13:57:32;;;;;;;77.57;51.83;;;;;;;;;;5052591;28;20223;-83
2022/04/20 14:00:03;;;;;;;21.13;18.63;;;;;;;;;;5052700;28;20193;-83
2022/04/20 14:02:32;;;;;;;8.80;8.00;;;;;;;;;;5052301;28;20229;-83
2022/04/20 14:04:59;;;;;;;27.00;24.37;;;;;;;;;;5052389;28;20553;-83
2022/04/20 14:07:26;;;;;;;14.13;12.27;;;;;;;;;;5052638;28;20280;-83
2022/04/20 14:09:53;;;;;;;8.90;8.10;;;;;;;;;;5052206;28;20193;-82
2022/04/20 14:12:22;;;;;;;11.37;10.47;;;;;;;;;;5051801;28;20689;-83
2022/04/20 14:14:49;;;;;;;11.77;10.40;;;;;;;;;;5052173;28;20236;-83
2022/04/20 14:17:17;;;;;;;57.43;37.73;;;;;;;;;;5052262;28;20194;-83
2022/04/20 14:19:47;;;;;;;120.93;100.50;;;;;;;;;;5052040;28;20331;-83
2022/04/20 14:22:15;;;;;;;39.27;35.37;;;;;;;;;;5051953;28;20204;-82
2022/04/20 14:24:42;;;;;;;96.97;88.20;;;;;;;;;;5052217;28;20244;-83
2022/04/20 14:32:48;;;;;;;13.27;12.07;;;;;;;;;;5052189;28;20185;-82
2022/04/20 14:35:17;;;;;;;11.53;10.43;;;;;;;;;;5052157;28;20201;-83
2022/04/20 14:37:44;;;;;;;14.87;13.43;;;;;;;;;;5052348;28;20201;-83
2022/04/20 14:40:11;;;;;;;16.43;14.77;;;;;;;;;;5051682;28;20292;-82
2022/04/20 14:42:38;;;;;;;28.60;22.83;;;;;;;;;;5051961;28;20748;-82
2022/04/20 14:45:06;;;;;;;21.00;18.03;;;;;;;;;;5051538;28;20288;-83
2022/04/20 14:47:33;;;;;;;14.67;13.23;;;;;;;;;;5051849;28;20204;-82
2022/04/20 14:50:01;;;;;;;13.50;12.23;;;;;;;;;;5052122;28;20290;-82
2022/04/20 14:52:29;;;;;;;20.43;18.23;;;;;;;;;;5051943;28;20644;-82
2022/04/20 14:55:04;;;;;;;15.73;14.13;;;;;;;;;;5051574;28;20201;-82
2022/04/20 14:57:31;;;;;;;20.43;18.23;;;;;;;;;;5052114;28;20561;-83
2022/04/20 14:59:58;;;;;;;61.13;41.73;;;;;;;;;;5051304;28;20230;-82
2022/04/20 15:02:32;;;;;;;23.67;21.20;;;;;;;;;;5051425;28;20242;-83
2022/04/20 15:04:59;;;;;;;13.13;11.93;;;;;;;;;;5051524;28;20197;-82
2022/04/20 15:07:26;;;;;;;23.70;20.53;;;;;;;;;;5051769;28;20219;-82
2022/04/20 15:09:56;;;;;;;22.27;18.93;;;;;;;;;;5053475;28;20284;-82
2022/04/20 15:12:29;;;;;;;25.67;22.93;;;;;;;;;;5055723;28;20232;-82
2022/04/20 15:15:02;;;;;;;17.40;15.43;;;;;;;;;;5055745;28;20201;-82
2022/04/20 15:17:30;;;;;;;17.40;15.60;;;;;;;;;;5055393;28;20255;-82
2022/04/20 15:20:03;;;;;;;24.00;21.57;;;;;;;;;;5055456;28;20300;-83
2022/04/20 15:22:30;;;;;;;17.87;16.20;;;;;;;;;;5055596;28;20201;-83
2022/04/20 15:24:59;;;;;;;15.87;14.37;;;;;;;;;;5055663;28;20236;-82
2022/04/20 15:27:26;;;;;;;10.93;9.90;;;;;;;;;;5055866;28;20205;-83
2022/04/20 15:29:59;;;;;;;12.10;11.00;;;;;;;;;;5054862;28;20204;-83
2022/04/20 15:32:27;;;;;;;23.07;17.73;;;;;;;;;;5055443;28;20299;-83